Time;durP1;ratioP1;P1;durP2;ratioP2;P2;SDS_P1;SDS_P2;PMS_P1;PMS_P2;Temp;Humidity;BMP_temperature;BMP_pressure;BME280_temperature;BME280_humidity;BME280_pressure;Samples;Min_cycle;Max_cycle;Signal;HPM_P1;HPM_P2
2021/01/12 00:00:20;;;;;;;17.20;6.32;;;6.50;99.90;;;;;;5087040;28;20044;-72
2021/01/12 00:02:47;;;;;;;20.27;7.93;;;6.50;99.90;;;;;;5086641;28;20067;-73
2021/01/12 00:05:13;;;;;;;18.33;8.35;;;6.50;99.90;;;;;;5086720;28;20048;-71
2021/01/12 00:07:38;;;;;;;23.90;6.82;;;6.50;99.90;;;;;;5086664;28;20044;-71
2021/01/12 00:10:08;;;;;;;21.60;8.20;;;6.50;99.90;;;;;;5087002;28;20045;-73
2021/01/12 00:12:34;;;;;;;15.20;6.47;;;6.50;99.90;;;;;;5086741;28;20443;-72
2021/01/12 00:15:00;;;;;;;18.48;7.68;;;6.50;99.90;;;;;;5086620;28;20044;-72
2021/01/12 00:17:26;;;;;;;20.02;8.05;;;6.50;99.90;;;;;;5086420;28;20041;-72
2021/01/12 00:19:52;;;;;;;18.00;7.43;;;6.50;99.90;;;;;;5086518;28;20100;-72
2021/01/12 00:22:18;;;;;;;15.48;6.30;;;6.50;99.90;;;;;;5086542;28;20048;-72
2021/01/12 00:24:45;;;;;;;16.75;5.47;;;6.50;99.90;;;;;;5086448;28;20044;-73
2021/01/12 00:27:16;;;;;;;19.55;6.28;;;6.60;99.90;;;;;;5086440;28;20036;-72
2021/01/12 00:29:42;;;;;;;10.60;4.63;;;6.60;99.90;;;;;;5086415;28;20045;-72
2021/01/12 00:32:15;;;;;;;18.98;6.85;;;6.70;99.90;;;;;;5086381;28;20052;-73
2021/01/12 00:34:40;;;;;;;16.10;6.18;;;6.60;99.90;;;;;;5086127;28;20045;-73
2021/01/12 00:37:06;;;;;;;14.15;5.60;;;6.60;99.90;;;;;;5086539;28;20058;-73
2021/01/12 00:39:33;;;;;;;19.60;7.63;;;6.70;99.90;;;;;;5086520;28;20044;-74
2021/01/12 00:41:59;;;;;;;11.60;5.63;;;6.60;99.90;;;;;;5086073;28;20083;-74
2021/01/12 00:44:25;;;;;;;12.82;4.65;;;6.60;99.90;;;;;;5086315;28;20048;-74
2021/01/12 00:46:51;;;;;;;17.27;5.55;;;6.60;99.90;;;;;;5086136;28;20075;-74
2021/01/12 00:49:20;;;;;;;12.30;5.35;;;6.60;99.90;;;;;;5085933;28;20049;-74
2021/01/12 00:51:46;;;;;;;19.20;6.20;;;6.60;99.90;;;;;;5086276;28;20044;-74
2021/01/12 00:54:17;;;;;;;22.70;6.70;;;6.60;99.90;;;;;;5086010;28;20070;-74
2021/01/12 00:56:43;;;;;;;19.65;5.43;;;6.60;99.90;;;;;;5086100;28;20070;-73
2021/01/12 00:59:09;;;;;;;17.25;6.28;;;6.60;99.90;;;;;;5085947;28;20120;-74
2021/01/12 01:01:37;;;;;;;20.80;5.68;;;6.60;99.90;;;;;;5085953;28;20131;-75
2021/01/12 01:04:04;;;;;;;9.65;4.90;;;6.60;99.90;;;;;;5085920;28;20048;-75
2021/01/12 01:06:30;;;;;;;16.63;6.07;;;6.60;99.90;;;;;;5086173;28;20438;-74
2021/01/12 01:08:56;;;;;;;12.40;4.82;;;6.60;99.90;;;;;;5085963;28;20068;-75
2021/01/12 01:11:22;;;;;;;12.45;4.50;;;6.60;99.90;;;;;;5085915;28;20041;-74
2021/01/12 01:13:48;;;;;;;14.60;4.90;;;6.60;99.90;;;;;;5085985;28;20148;-75
2021/01/12 01:16:14;;;;;;;15.30;5.82;;;6.60;99.90;;;;;;5086019;28;20492;-75
2021/01/12 01:18:40;;;;;;;16.58;5.95;;;6.60;99.90;;;;;;5085670;28;20067;-75
2021/01/12 01:21:05;;;;;;;12.77;4.45;;;6.60;99.90;;;;;;5085966;28;20086;-75
2021/01/12 01:23:31;;;;;;;13.80;5.47;;;6.60;99.90;;;;;;5085739;28;20048;-75
2021/01/12 01:25:57;;;;;;;21.88;5.35;;;6.60;99.90;;;;;;5085760;28;20101;-76
2021/01/12 01:28:24;;;;;;;10.43;5.03;;;6.60;99.90;;;;;;5087656;28;20052;-75
2021/01/12 01:30:53;;;;;;;16.63;6.17;;;6.60;99.90;;;;;;5089771;28;20048;-73
2021/01/12 01:33:20;;;;;;;16.15;5.55;;;6.60;99.90;;;;;;5089802;28;20282;-74
2021/01/12 01:35:46;;;;;;;21.00;5.40;;;6.60;99.90;;;;;;5089882;28;20086;-74
2021/01/12 01:38:12;;;;;;;14.80;6.07;;;6.60;99.90;;;;;;5089629;28;20107;-74
2021/01/12 01:40:38;;;;;;;14.40;6.00;;;6.60;99.90;;;;;;5089429;28;20071;-74
2021/01/12 01:43:04;;;;;;;14.18;5.30;;;6.60;99.90;;;;;;5089524;28;20040;-73
2021/01/12 01:45:30;;;;;;;15.73;6.05;;;6.60;99.90;;;;;;5089333;28;20048;-73
2021/01/12 01:47:56;;;;;;;14.88;5.65;;;6.60;99.90;;;;;;5089439;28;20044;-74
2021/01/12 01:50:23;;;;;;;13.48;4.82;;;6.70;99.90;;;;;;5089516;28;20119;-74
2021/01/12 01:52:51;;;;;;;9.93;4.60;;;6.70;99.90;;;;;;5089398;28;20052;-75
2021/01/12 01:55:17;;;;;;;;;;;6.70;99.90;;;;;;5089898;28;20045;-74
2021/01/12 01:57:43;;;;;;;11.57;4.53;;;6.70;99.90;;;;;;5089217;28;19921;-75
2021/01/12 02:00:10;;;;;;;12.45;5.93;;;6.70;99.90;;;;;;5089289;28;20052;-74
2021/01/12 02:02:40;;;;;;;17.27;6.20;;;6.70;99.90;;;;;;5089077;28;20047;-73
2021/01/12 02:05:10;;;;;;;19.05;5.97;;;6.70;99.90;;;;;;5089425;28;20075;-74
2021/01/12 02:07:41;;;;;;;13.35;6.60;;;6.70;99.90;;;;;;5089101;28;20048;-74
2021/01/12 02:10:10;;;;;;;10.32;4.20;;;6.70;99.90;;;;;;5089057;28;20044;-74
2021/01/12 02:12:43;;;;;;;13.40;5.75;;;6.70;99.90;;;;;;5089074;28;20048;-73
2021/01/12 02:15:11;;;;;;;11.50;5.90;;;6.70;99.90;;;;;;5088825;28;20076;-73
2021/01/12 02:17:37;;;;;;;19.33;6.20;;;6.70;99.90;;;;;;5088859;28;20052;-74
2021/01/12 02:20:03;;;;;;;15.15;5.45;;;6.70;99.90;;;;;;5089077;28;20044;-73
2021/01/12 02:22:30;;;;;;;10.93;5.47;;;6.70;99.90;;;;;;5088722;28;20040;-73
2021/01/12 02:24:56;;;;;;;12.43;5.00;;;6.70;99.90;;;;;;5088860;28;20119;-74
2021/01/12 02:27:23;;;;;;;9.93;3.95;;;6.70;99.90;;;;;;5088711;28;20067;-74
2021/01/12 02:29:50;;;;;;;17.77;5.28;;;6.70;99.90;;;;;;5088710;28;20064;-74
2021/01/12 02:32:17;;;;;;;14.35;4.90;;;6.70;99.90;;;;;;5088593;28;20575;-73
2021/01/12 02:34:48;;;;;;;14.48;5.13;;;6.70;99.90;;;;;;5088802;28;20078;-75
2021/01/12 02:37:16;;;;;;;12.98;4.85;;;6.70;99.90;;;;;;5088627;28;20496;-74
2021/01/12 02:39:55;;;;;;;10.70;4.50;;;6.80;99.90;;;;;;5088618;28;20068;-75
2021/01/12 02:42:20;;;;;;;12.23;5.25;;;6.70;99.90;;;;;;5088398;28;20063;-74
2021/01/12 02:44:46;;;;;;;10.50;5.15;;;6.70;99.90;;;;;;5088440;28;20044;-73
2021/01/12 02:47:12;;;;;;;15.20;5.13;;;6.70;99.90;;;;;;5088534;28;20041;-74
2021/01/12 02:49:38;;;;;;;12.30;5.55;;;6.80;99.90;;;;;;5088546;28;20048;-74
2021/01/12 02:52:05;;;;;;;12.88;5.70;;;6.70;99.90;;;;;;5088215;28;20119;-74
2021/01/12 02:54:31;;;;;;;8.98;4.35;;;6.70;99.90;;;;;;5088235;28;20128;-71
2021/01/12 02:56:57;;;;;;;10.98;4.00;;;6.70;99.90;;;;;;5088176;28;20044;-74
2021/01/12 02:59:22;;;;;;;8.60;3.70;;;6.70;99.90;;;;;;5088266;28;20044;-73
2021/01/12 03:01:48;;;;;;;15.50;5.82;;;6.70;99.90;;;;;;5088096;28;21583;-74
2021/01/12 03:04:14;;;;;;;14.48;5.70;;;6.70;99.90;;;;;;5088189;28;20067;-73
2021/01/12 03:06:40;;;;;;;14.93;6.07;;;6.70;99.90;;;;;;5087955;28;20500;-73
2021/01/12 03:09:06;;;;;;;14.05;4.32;;;6.70;99.90;;;;;;5088103;28;20078;-73
2021/01/12 03:11:32;;;;;;;10.93;5.10;;;6.80;99.90;;;;;;5087799;28;20032;-74
2021/01/12 03:13:58;;;;;;;7.43;4.97;;;6.70;99.90;;;;;;5087927;28;20052;-74
2021/01/12 03:16:25;;;;;;;10.20;3.35;;;6.80;99.90;;;;;;5087995;28;20044;-74
2021/01/12 03:18:50;;;;;;;17.00;6.40;;;6.80;99.90;;;;;;5087942;28;20048;-74
2021/01/12 03:21:17;;;;;;;19.20;6.60;;;6.70;99.90;;;;;;5087714;28;20055;-73
2021/01/12 03:23:43;;;;;;;7.32;3.75;;;6.70;99.90;;;;;;5087593;28;20100;-73
2021/01/12 03:26:08;;;;;;;14.75;5.65;;;6.70;99.90;;;;;;5087472;28;20051;-73
2021/01/12 03:28:34;;;;;;;11.77;5.38;;;6.80;99.90;;;;;;5087733;28;20048;-73
2021/01/12 03:31:01;;;;;;;14.73;5.50;;;6.70;99.90;;;;;;5087495;28;20044;-72
2021/01/12 03:33:30;;;;;;;13.63;6.10;;;6.70;99.90;;;;;;5087775;28;20044;-73
2021/01/12 03:35:56;;;;;;;13.43;4.63;;;6.70;99.90;;;;;;5087653;28;20051;-73
2021/01/12 03:38:21;;;;;;;15.48;5.20;;;6.70;99.90;;;;;;5087372;28;20492;-73
2021/01/12 03:40:47;;;;;;;13.32;5.57;;;6.70;99.90;;;;;;5087088;28;20067;-72
2021/01/12 03:43:13;;;;;;;14.63;6.15;;;6.70;99.90;;;;;;5087208;28;20041;-73
2021/01/12 03:45:38;;;;;;;13.75;4.43;;;6.70;99.90;;;;;;5087334;28;20057;-72
2021/01/12 03:48:04;;;;;;;11.52;3.58;;;6.80;99.90;;;;;;5087138;28;20480;-72
2021/01/12 03:50:30;;;;;;;11.35;4.30;;;6.70;99.90;;;;;;5086653;28;20048;-72
2021/01/12 03:52:56;;;;;;;13.38;5.47;;;6.70;99.90;;;;;;5087137;28;20036;-72
2021/01/12 03:55:22;;;;;;;19.02;4.70;;;6.70;99.90;;;;;;5086897;28;20041;-73
2021/01/12 03:57:48;;;;;;;12.60;4.35;;;6.80;99.90;;;;;;5087220;28;20677;-73
2021/01/12 04:00:14;;;;;;;12.18;3.60;;;6.80;99.90;;;;;;5087088;28;20055;-73
2021/01/12 04:02:40;;;;;;;12.15;3.47;;;6.70;99.90;;;;;;5086861;28;20056;-73
2021/01/12 04:05:07;;;;;;;10.07;3.50;;;6.70;99.90;;;;;;5086915;28;20044;-68
2021/01/12 04:07:32;;;;;;;8.45;2.30;;;6.60;99.90;;;;;;5086861;28;20036;-69
2021/01/12 04:09:59;;;;;;;12.65;3.67;;;6.40;99.90;;;;;;5086783;28;20056;-70
2021/01/12 04:12:24;;;;;;;15.95;2.58;;;6.20;99.90;;;;;;5086656;28;20047;-71
2021/01/12 04:14:50;;;;;;;8.18;1.80;;;6.20;99.90;;;;;;5087144;28;20064;-73
2021/01/12 04:17:16;;;;;;;8.15;1.45;;;6.00;99.90;;;;;;5086588;28;20041;-73
2021/01/12 04:19:41;;;;;;;7.00;1.70;;;5.80;99.90;;;;;;5086433;28;20052;-72
2021/01/12 04:22:07;;;;;;;7.90;1.38;;;5.70;99.90;;;;;;5086649;28;20045;-73
2021/01/12 04:24:33;;;;;;;4.45;1.10;;;5.60;99.90;;;;;;5086365;28;20068;-73
2021/01/12 04:26:59;;;;;;;10.93;1.52;;;5.60;99.90;;;;;;5086724;28;20542;-73
2021/01/12 04:29:24;;;;;;;13.93;1.70;;;5.50;99.90;;;;;;5086530;28;20110;-74
2021/01/12 04:31:50;;;;;;;14.00;1.88;;;5.50;99.90;;;;;;5086445;28;20049;-74
2021/01/12 04:34:16;;;;;;;5.68;1.42;;;5.50;99.90;;;;;;5086512;28;20059;-74
2021/01/12 04:36:42;;;;;;;7.50;1.13;;;5.50;99.90;;;;;;5086434;28;20040;-74
2021/01/12 04:39:07;;;;;;;8.93;1.73;;;5.40;99.90;;;;;;5086280;28;20044;-73
2021/01/12 04:41:33;;;;;;;8.90;1.70;;;5.40;99.90;;;;;;5086217;28;20064;-73
2021/01/12 04:43:59;;;;;;;10.85;1.58;;;5.40;99.90;;;;;;5086102;28;20044;-73
2021/01/12 04:46:25;;;;;;;9.85;1.40;;;5.40;99.90;;;;;;5086165;28;20527;-74
2021/01/12 04:48:51;;;;;;;9.82;2.05;;;5.40;99.90;;;;;;5086111;28;20063;-74
2021/01/12 04:51:17;;;;;;;7.07;1.30;;;5.40;99.90;;;;;;5086056;28;20051;-73
2021/01/12 04:53:47;;;;;;;7.15;1.33;;;5.40;99.90;;;;;;5086134;28;20048;-73
2021/01/12 04:56:17;;;;;;;10.30;1.75;;;5.30;99.90;;;;;;5086537;28;20067;-73
2021/01/12 04:58:45;;;;;;;7.75;1.27;;;5.30;99.90;;;;;;5086066;28;20044;-73
2021/01/12 05:01:13;;;;;;;10.38;1.33;;;5.30;99.90;;;;;;5086025;28;20044;-72
2021/01/12 05:03:43;;;;;;;12.35;1.80;;;5.30;99.90;;;;;;5085069;28;20102;-72
2021/01/12 05:06:13;;;;;;;15.23;2.33;;;5.30;99.90;;;;;;5086006;28;20096;-71
2021/01/12 05:08:48;;;;;;;9.65;1.50;;;5.30;99.90;;;;;;5085844;28;20052;-73
2021/01/12 05:11:15;;;;;;;19.30;2.13;;;5.30;99.90;;;;;;5086065;28;20076;-73
2021/01/12 05:13:46;;;;;;;10.90;1.60;;;5.30;99.90;;;;;;5086155;28;20046;-75
2021/01/12 05:16:12;;;;;;;13.98;1.52;;;5.30;99.90;;;;;;5085844;28;20398;-75
2021/01/12 05:18:41;;;;;;;14.13;3.08;;;5.30;99.90;;;;;;5085670;28;20056;-76
2021/01/12 05:21:12;;;;;;;16.73;2.03;;;5.30;99.90;;;;;;5085671;28;20046;-76
2021/01/12 05:23:52;;;;;;;10.68;1.80;;;5.30;99.90;;;;;;5085949;28;20050;-76
2021/01/12 05:26:19;;;;;;;21.10;2.17;;;5.30;99.90;;;;;;5085623;28;20123;-76
2021/01/12 05:28:46;;;;;;;16.90;2.38;;;5.30;99.90;;;;;;5086085;28;20090;-76
2021/01/12 05:31:15;;;;;;;14.32;1.75;;;5.30;99.90;;;;;;5085558;28;20098;-75
2021/01/12 05:33:42;;;;;;;27.00;2.40;;;5.30;99.90;;;;;;5085643;28;20044;-75
2021/01/12 05:36:09;;;;;;;10.52;2.38;;;5.30;99.90;;;;;;5085726;28;20044;-75
2021/01/12 05:38:36;;;;;;;18.60;2.83;;;5.20;99.90;;;;;;5085675;28;20044;-75
2021/01/12 05:41:03;;;;;;;13.25;2.03;;;5.20;99.90;;;;;;5085738;28;20067;-76
2021/01/12 05:43:35;;;;;;;17.48;2.75;;;5.20;99.90;;;;;;5085847;28;20044;-76
2021/01/12 05:46:09;;;;;;;13.05;2.80;;;5.20;99.90;;;;;;5085509;28;20044;-76
2021/01/12 05:48:36;;;;;;;14.30;2.25;;;5.10;99.90;;;;;;5085495;28;20109;-76
2021/01/12 05:51:04;;;;;;;8.50;1.55;;;5.10;99.90;;;;;;5085544;28;20044;-75
2021/01/12 05:53:46;;;;;;;8.15;2.10;;;5.00;99.90;;;;;;5085608;28;20051;-75
2021/01/12 05:56:31;;;;;;;10.95;1.63;;;4.90;99.90;;;;;;5085517;28;20170;-74
2021/01/12 05:58:59;;;;;;;12.55;1.83;;;5.20;99.90;;;;;;5084187;28;20049;-75
2021/01/12 06:01:44;;;;;;;11.70;1.90;;;4.80;99.90;;;;;;5085335;28;20044;-75
2021/01/12 06:04:12;;;;;;;20.00;2.50;;;4.80;99.90;;;;;;5085404;28;20052;-75
2021/01/12 06:06:40;;;;;;;13.85;2.17;;;4.70;99.90;;;;;;5085344;28;20140;-75
2021/01/12 06:09:07;;;;;;;18.52;2.00;;;4.80;99.90;;;;;;5085267;28;20076;-74
2021/01/12 06:11:35;;;;;;;13.20;1.80;;;4.70;99.90;;;;;;5085290;28;20041;-75
2021/01/12 06:14:21;;;;;;;;;;;4.70;99.90;;;;;;5086944;28;20045;-75
2021/01/12 06:16:47;;;;;;;18.20;2.17;;;4.80;99.90;;;;;;5088849;28;19920;-75
2021/01/12 06:19:18;;;;;;;15.25;3.65;;;4.70;99.90;;;;;;5089040;28;20123;-75
2021/01/12 06:21:56;;;;;;;11.93;2.42;;;4.70;99.90;;;;;;5088771;28;20112;-75
2021/01/12 06:24:37;;;;;;;18.65;2.08;;;4.70;99.90;;;;;;5088722;28;20389;-75
2021/01/12 06:27:11;;;;;;;15.90;2.67;;;4.90;99.90;;;;;;5088765;28;20040;-75
2021/01/12 06:29:39;;;;;;;9.20;1.73;;;4.70;99.90;;;;;;5088544;28;20051;-75
2021/01/12 06:32:05;;;;;;;17.38;3.22;;;4.70;99.90;;;;;;5088535;28;20114;-75
2021/01/12 06:34:32;;;;;;;19.23;2.58;;;4.70;99.90;;;;;;5088717;28;20041;-74
2021/01/12 06:36:59;;;;;;;15.75;2.80;;;4.70;99.90;;;;;;5088651;28;20067;-74
2021/01/12 06:39:54;;;;;;;23.02;2.97;;;4.70;99.90;;;;;;5088692;28;20046;-75
2021/01/12 06:42:24;;;;;;;23.45;2.72;;;4.90;99.90;;;;;;5088623;28;20096;-74
2021/01/12 06:44:52;;;;;;;19.33;2.95;;;4.70;99.90;;;;;;5088394;28;20052;-74
2021/01/12 06:47:27;;;;;;;21.77;3.05;;;4.70;99.90;;;;;;5088530;28;20504;-74
2021/01/12 06:50:05;;;;;;;27.95;3.25;;;4.70;99.90;;;;;;5088329;28;20055;-73
2021/01/12 06:52:47;;;;;;;18.35;3.03;;;4.70;99.90;;;;;;5088237;28;20041;-73
2021/01/12 06:55:20;;;;;;;23.30;2.25;;;4.70;99.90;;;;;;5088178;28;20044;-73
2021/01/12 06:57:50;;;;;;;14.73;3.15;;;4.70;99.90;;;;;;5088215;28;20179;-72
2021/01/12 07:00:18;;;;;;;16.65;2.75;;;4.60;99.90;;;;;;5088313;28;20075;-72
2021/01/12 07:02:44;;;;;;;19.02;2.65;;;4.60;99.90;;;;;;5088083;28;20066;-72
2021/01/12 07:05:12;;;;;;;27.30;2.53;;;4.60;99.90;;;;;;5088270;28;20048;-72
2021/01/12 07:07:42;;;;;;;18.05;2.50;;;4.60;99.90;;;;;;5087990;28;20435;-72
2021/01/12 07:10:13;;;;;;;33.53;2.97;;;4.60;99.90;;;;;;5087961;28;20059;-72
2021/01/12 07:12:39;;;;;;;20.63;3.75;;;4.60;99.90;;;;;;5087906;28;20064;-71
2021/01/12 07:15:10;;;;;;;11.82;2.15;;;4.50;99.90;;;;;;5087799;28;20045;-70
2021/01/12 07:17:40;;;;;;;20.27;2.85;;;4.50;99.90;;;;;;5087742;28;20048;-71
2021/01/12 07:20:11;;;;;;;15.35;1.80;;;4.50;99.90;;;;;;5087550;28;20104;-71
2021/01/12 07:22:38;;;;;;;29.08;3.55;;;4.50;99.90;;;;;;5087456;28;20040;-71
2021/01/12 07:25:10;;;;;;;25.73;3.35;;;4.50;99.90;;;;;;5087154;28;20063;-73
2021/01/12 07:27:36;;;;;;;20.40;3.30;;;4.50;99.90;;;;;;5087542;28;20070;-73
2021/01/12 07:30:07;;;;;;;23.83;2.85;;;4.50;99.90;;;;;;5087594;28;20048;-72
2021/01/12 07:32:39;;;;;;;23.88;2.72;;;4.50;99.90;;;;;;5087530;28;20059;-72
2021/01/12 07:35:07;;;;;;;22.30;2.67;;;4.50;99.90;;;;;;5086167;28;20068;-72
2021/01/12 07:37:39;;;;;;;16.05;2.67;;;4.50;99.90;;;;;;5087288;28;20045;-72
2021/01/12 07:40:10;;;;;;;20.40;3.10;;;4.50;99.90;;;;;;5086766;28;20048;-71
2021/01/12 07:42:46;;;;;;;23.00;2.63;;;4.50;99.90;;;;;;5087180;28;20044;-72
2021/01/12 07:45:13;;;;;;;15.48;2.35;;;4.50;99.90;;;;;;5087112;28;20048;-72
2021/01/12 07:47:39;;;;;;;22.92;2.55;;;4.50;99.90;;;;;;5087075;28;20048;-72
2021/01/12 07:50:07;;;;;;;22.70;3.28;;;4.50;99.90;;;;;;5087395;28;20067;-72
2021/01/12 07:52:33;;;;;;;19.40;3.08;;;4.50;99.90;;;;;;5087216;28;20040;-72
2021/01/12 07:54:59;;;;;;;18.73;3.63;;;4.50;99.90;;;;;;5087041;28;20044;-72
2021/01/12 07:57:26;;;;;;;23.55;2.55;;;4.50;99.90;;;;;;5087047;28;20041;-71
2021/01/12 07:59:52;;;;;;;30.73;5.55;;;4.50;99.90;;;;;;5086864;28;20118;-72
2021/01/12 08:02:19;;;;;;;33.17;10.27;;;4.40;99.90;;;;;;5086765;28;20047;-72
2021/01/12 08:04:46;;;;;;;20.47;3.47;;;4.50;99.90;;;;;;5087017;28;20041;-71
2021/01/12 08:07:21;;;;;;;17.63;3.78;;;4.40;99.90;;;;;;5086851;28;20507;-71
2021/01/12 08:09:53;;;;;;;21.25;4.05;;;4.40;99.90;;;;;;5086857;28;20044;-71
2021/01/12 08:12:20;;;;;;;13.88;3.33;;;4.50;99.90;;;;;;5086347;28;20048;-74
2021/01/12 08:14:46;;;;;;;20.20;2.90;;;4.40;99.90;;;;;;5086469;28;20059;-71
2021/01/12 08:17:26;;;;;;;16.55;2.65;;;4.40;99.90;;;;;;5086580;28;20460;-71
2021/01/12 08:19:54;;;;;;;16.67;1.30;;;4.30;99.90;;;;;;5078453;28;20045;-69
2021/01/12 08:22:20;;;;;;;14.93;2.90;;;4.20;99.90;;;;;;5086040;28;20046;-67
2021/01/12 08:24:46;;;;;;;6.18;1.67;;;4.20;99.90;;;;;;5085150;28;20052;-67
2021/01/12 08:27:19;;;;;;;14.85;1.98;;;4.10;99.90;;;;;;5085882;28;20098;-68
2021/01/12 08:29:45;;;;;;;15.95;1.55;;;4.00;99.90;;;;;;5084615;28;20052;-68
2021/01/12 08:32:13;;;;;;;11.00;2.20;;;4.10;99.90;;;;;;5070842;28;20048;-69
2021/01/12 08:35:03;;;;;;;11.65;2.13;;;4.20;99.90;;;;;;5077126;28;20108;-68
2021/01/12 08:37:30;;;;;;;11.27;1.70;;;3.90;99.90;;;;;;5081295;28;20045;-69
2021/01/12 08:40:01;;;;;;;13.20;2.00;;;3.90;99.90;;;;;;5069264;28;20147;-68
2021/01/12 08:42:28;;;;;;;12.77;2.42;;;3.90;99.90;;;;;;5078916;28;20041;-69
2021/01/12 08:44:55;;;;;;;15.68;2.45;;;4.00;99.90;;;;;;5076518;28;20127;-69
2021/01/12 08:47:25;;;;;;;10.65;1.90;;;3.70;99.90;;;;;;5071274;28;20501;-69
2021/01/12 08:50:04;;;;;;;6.30;1.70;;;3.70;99.90;;;;;;5081901;28;20579;-68
2021/01/12 08:52:30;;;;;;;15.52;2.05;;;3.70;99.90;;;;;;5073125;28;20417;-69
2021/01/12 08:54:56;;;;;;;7.20;1.60;;;3.70;99.90;;;;;;5074666;28;20045;-70
2021/01/12 08:57:22;;;;;;;10.32;1.20;;;3.70;99.90;;;;;;5080359;28;20050;-68
2021/01/12 08:59:48;;;;;;;18.67;2.30;;;3.70;99.90;;;;;;5068534;28;20053;-69
2021/01/12 09:02:18;;;;;;;19.73;2.67;;;3.60;99.90;;;;;;5084497;28;20413;-69
2021/01/12 09:04:45;;;;;;;8.43;1.85;;;3.50;99.90;;;;;;5083609;28;20078;-69
2021/01/12 09:07:11;;;;;;;8.05;1.52;;;3.50;99.90;;;;;;5084361;28;20047;-69
2021/01/12 09:09:37;;;;;;;8.27;1.33;;;3.50;99.90;;;;;;5081747;28;20056;-68
2021/01/12 09:12:03;;;;;;;6.40;1.60;;;3.50;99.90;;;;;;5082825;28;20052;-68
2021/01/12 09:14:30;;;;;;;13.10;1.60;;;3.60;99.90;;;;;;5084218;28;20094;-69
2021/01/12 09:16:58;;;;;;;9.10;1.50;;;3.80;99.90;;;;;;5079966;28;20052;-68
2021/01/12 09:19:32;;;;;;;11.43;2.30;;;3.90;99.90;;;;;;5084562;28;20086;-68
2021/01/12 09:22:15;;;;;;;6.40;1.38;;;3.90;99.90;;;;;;5084352;28;20050;-64
2021/01/12 09:24:51;;;;;;;10.32;1.80;;;3.90;99.90;;;;;;5080553;28;20041;-71
2021/01/12 09:27:19;;;;;;;6.38;1.17;;;3.90;99.90;;;;;;5079383;28;20040;-73
2021/01/12 09:29:45;;;;;;;7.03;1.40;;;3.90;99.90;;;;;;5082406;28;20105;-77
2021/01/12 09:32:12;;;;;;;10.48;1.23;;;3.80;99.90;;;;;;5083340;28;20048;-78
2021/01/12 09:34:41;;;;;;;11.20;1.25;;;3.70;99.90;;;;;;5080389;28;20105;-72
2021/01/12 09:37:17;;;;;;;8.55;1.30;;;3.70;99.90;;;;;;5083119;28;20108;-71
2021/01/12 09:39:45;;;;;;;5.32;1.10;;;3.60;99.90;;;;;;5072407;28;20048;-72
2021/01/12 09:42:11;;;;;;;7.18;1.80;;;3.60;99.90;;;;;;5084365;28;20052;-73
2021/01/12 09:44:36;;;;;;;9.90;2.05;;;3.70;99.90;;;;;;5083850;28;20068;-72
2021/01/12 09:47:03;;;;;;;13.25;1.45;;;3.80;99.90;;;;;;5083166;28;20045;-71
2021/01/12 09:49:28;;;;;;;14.90;2.05;;;3.90;99.90;;;;;;5086139;28;20055;-71
2021/01/12 09:51:54;;;;;;;18.95;4.55;;;4.00;99.90;;;;;;5088059;28;20127;-70
2021/01/12 09:54:20;;;;;;;17.73;3.53;;;4.00;99.90;;;;;;5088882;28;20040;-71
2021/01/12 09:56:46;;;;;;;8.80;1.60;;;4.10;99.90;;;;;;5089147;28;20166;-71
2021/01/12 09:59:11;;;;;;;16.90;2.13;;;4.20;99.90;;;;;;5087348;28;20032;-70
2021/01/12 10:01:37;;;;;;;7.45;1.20;;;4.30;99.90;;;;;;5087525;28;20040;-70
2021/01/12 10:04:03;;;;;;;12.10;1.42;;;4.30;99.90;;;;;;5085907;28;20052;-70
2021/01/12 10:06:31;;;;;;;2.60;0.77;;;4.30;99.90;;;;;;5085593;28;20044;-70
2021/01/12 10:08:56;;;;;;;6.50;1.17;;;4.40;99.90;;;;;;5088248;28;20048;-70
2021/01/12 10:11:23;;;;;;;4.75;1.10;;;4.40;99.90;;;;;;5087783;28;20040;-71
2021/01/12 10:13:49;;;;;;;12.10;2.28;;;4.50;99.90;;;;;;5087156;28;20045;-71
2021/01/12 10:16:24;;;;;;;4.05;0.98;;;4.50;99.90;;;;;;5085423;28;20479;-70
2021/01/12 10:18:50;;;;;;;14.48;1.33;;;4.60;99.90;;;;;;5083618;28;20040;-70
2021/01/12 10:21:17;;;;;;;19.83;3.35;;;4.60;99.90;;;;;;5087660;28;20047;-71
2021/01/12 10:23:44;;;;;;;8.25;1.25;;;4.70;99.90;;;;;;5087337;28;20036;-70
2021/01/12 10:26:18;;;;;;;13.60;1.65;;;4.70;99.90;;;;;;5087574;28;20033;-69
2021/01/12 10:28:45;;;;;;;7.95;2.25;;;4.80;99.90;;;;;;5087139;28;20052;-75
2021/01/12 10:31:13;;;;;;;6.63;1.20;;;4.80;99.90;;;;;;5084672;28;20048;-70
2021/01/12 10:33:40;;;;;;;19.70;1.88;;;4.80;99.90;;;;;;5085888;28;20044;-69
2021/01/12 10:36:06;;;;;;;12.80;1.60;;;4.80;99.90;;;;;;5079253;28;20074;-75
2021/01/12 10:38:32;;;;;;;5.03;1.30;;;5.00;99.90;;;;;;5087499;28;20047;-74
2021/01/12 10:40:58;;;;;;;9.00;1.65;;;5.00;99.90;;;;;;5087089;28;20064;-72
2021/01/12 10:43:25;;;;;;;9.73;1.20;;;5.00;99.90;;;;;;5082912;28;20469;-74
2021/01/12 10:45:51;;;;;;;7.38;1.20;;;5.10;99.90;;;;;;5076430;28;20056;-71
2021/01/12 10:48:17;;;;;;;11.10;1.55;;;5.10;99.90;;;;;;5085497;28;20484;-71
2021/01/12 10:50:43;;;;;;;8.80;1.30;;;4.80;99.90;;;;;;5082466;28;20071;-71
2021/01/12 10:53:09;;;;;;;12.10;1.60;;;4.80;99.90;;;;;;5083562;28;20045;-71
2021/01/12 10:55:34;;;;;;;11.60;1.90;;;4.70;99.90;;;;;;5084324;28;20032;-74
2021/01/12 10:58:00;;;;;;;14.50;2.67;;;4.70;99.90;;;;;;5079303;28;20052;-77
2021/01/12 11:00:26;;;;;;;6.65;1.10;;;4.80;99.90;;;;;;5086059;28;20043;-72
2021/01/12 11:02:53;;;;;;;6.75;1.52;;;4.90;99.90;;;;;;5087127;28;20059;-71
2021/01/12 11:05:19;;;;;;;8.88;1.55;;;4.90;99.90;;;;;;5086803;28;20052;-72
2021/01/12 11:07:45;;;;;;;7.70;1.50;;;5.10;99.90;;;;;;5085920;28;20036;-70
2021/01/12 11:10:11;;;;;;;16.45;1.90;;;5.10;99.90;;;;;;5081903;28;20070;-70
2021/01/12 11:12:37;;;;;;;12.82;1.80;;;5.30;99.90;;;;;;5077206;28;20044;-65
2021/01/12 11:15:07;;;;;;;5.80;1.77;;;5.30;99.90;;;;;;5086094;28;20045;-63
2021/01/12 11:17:33;;;;;;;13.85;1.35;;;5.40;99.90;;;;;;5085543;28;20040;-70
2021/01/12 11:20:00;;;;;;;7.63;1.40;;;5.50;99.90;;;;;;5083161;28;20468;-70
2021/01/12 11:22:28;;;;;;;14.90;1.95;;;5.60;99.90;;;;;;5087480;28;20041;-72
2021/01/12 11:25:08;;;;;;;6.53;1.75;;;5.80;99.90;;;;;;5086677;28;20062;-74
2021/01/12 11:27:35;;;;;;;6.38;1.63;;;5.80;99.90;;;;;;5087035;28;20040;-73
2021/01/12 11:30:01;;;;;;;14.90;2.22;;;5.80;99.90;;;;;;5078606;28;20044;-76
2021/01/12 11:32:30;;;;;;;17.90;1.88;;;5.80;99.90;;;;;;5086045;28;20124;-73
2021/01/12 11:34:55;;;;;;;8.43;1.80;;;5.80;99.90;;;;;;5086145;28;20048;-69
2021/01/12 11:37:22;;;;;;;14.05;2.22;;;5.70;99.90;;;;;;5086234;28;20534;-81
2021/01/12 11:39:47;;;;;;;7.50;1.67;;;5.80;99.90;;;;;;5085697;28;20127;-67
2021/01/12 11:42:14;;;;;;;11.65;1.60;;;5.80;99.90;;;;;;5086394;28;20122;-67
2021/01/12 11:44:42;;;;;;;17.53;3.00;;;5.80;99.90;;;;;;5086395;28;20036;-68
2021/01/12 11:47:08;;;;;;;19.90;3.22;;;5.90;99.90;;;;;;5085911;28;20294;-71
2021/01/12 11:49:34;;;;;;;11.82;1.52;;;5.90;99.90;;;;;;5075329;28;20495;-78
2021/01/12 11:52:08;;;;;;;10.82;1.67;;;6.20;99.90;;;;;;5083326;28;20558;-72
2021/01/12 11:54:35;;;;;;;27.15;4.80;;;6.60;99.90;;;;;;5074083;28;20096;-73
2021/01/12 11:57:03;;;;;;;5.60;1.47;;;6.70;99.90;;;;;;5071164;28;20045;-72
2021/01/12 11:59:30;;;;;;;;;;;7.00;99.90;;;;;;5083701;28;20044;-64
2021/01/12 12:01:57;;;;;;;9.40;1.90;;;6.80;99.90;;;;;;5086179;28;19928;-65
2021/01/12 12:04:24;;;;;;;11.25;2.47;;;6.50;99.90;;;;;;5086234;28;20043;-66
2021/01/12 12:06:55;;;;;;;16.33;2.42;;;6.40;99.90;;;;;;5085639;28;20090;-67
2021/01/12 12:09:21;;;;;;;18.23;3.33;;;6.00;99.90;;;;;;5080650;28;20063;-68
2021/01/12 12:11:48;;;;;;;8.73;1.73;;;5.50;99.90;;;;;;5085369;28;20040;-66
2021/01/12 12:14:15;;;;;;;15.35;1.98;;;5.20;99.90;;;;;;5081232;28;20466;-62
2021/01/12 12:16:43;;;;;;;3.20;0.82;;;5.30;99.90;;;;;;5074520;28;20147;-63
2021/01/12 12:19:09;;;;;;;12.38;1.40;;;4.60;99.90;;;;;;5085751;28;20048;-64
2021/01/12 12:21:36;;;;;;;6.13;1.20;;;3.90;99.90;;;;;;5085909;28;20051;-67
2021/01/12 12:24:03;;;;;;;7.47;1.42;;;3.90;99.90;;;;;;5075249;28;20442;-68
2021/01/12 12:26:29;;;;;;;6.97;1.45;;;3.80;99.90;;;;;;5078947;28;20049;-66
2021/01/12 12:28:55;;;;;;;9.95;1.30;;;3.70;99.90;;;;;;5076068;28;20054;-70
2021/01/12 12:31:20;;;;;;;5.45;1.13;;;3.60;99.90;;;;;;5084213;28;20416;-72
2021/01/12 12:33:47;;;;;;;6.93;1.20;;;3.60;99.90;;;;;;5085348;28;20048;-70
2021/01/12 12:36:15;;;;;;;6.70;1.63;;;3.70;99.90;;;;;;5085264;28;20147;-71
2021/01/12 12:38:41;;;;;;;4.95;1.05;;;4.10;99.90;;;;;;5083119;28;20044;-66
2021/01/12 12:41:09;;;;;;;4.03;0.82;;;4.10;99.90;;;;;;5085749;28;20084;-68
2021/01/12 12:43:35;;;;;;;7.00;1.13;;;4.40;99.90;;;;;;5085078;28;20044;-69
2021/01/12 12:46:00;;;;;;;6.82;1.40;;;4.80;99.90;;;;;;5067781;28;20114;-66
2021/01/12 12:48:26;;;;;;;4.65;1.05;;;5.40;99.90;;;;;;5084959;28;20041;-67
2021/01/12 12:50:53;;;;;;;9.10;1.45;;;5.70;99.90;;;;;;5083790;28;20495;-76
2021/01/12 12:53:19;;;;;;;9.13;1.67;;;6.00;99.90;;;;;;5085211;28;20048;-66